createdAt,value
2023-08-29T00:00:42.817Z,65.61
2023-08-29T00:03:28.992Z,65.29
2023-08-29T00:06:04.986Z,65.23
2023-08-29T00:08:36.316Z,65.33
2023-08-29T00:11:05.352Z,65.24
2023-08-29T00:13:33.421Z,65.14
2023-08-29T00:16:01.852Z,65.91
2023-08-29T00:18:30.506Z,65.75
2023-08-29T00:20:58.503Z,66.22
2023-08-29T00:23:26.478Z,67.27
2023-08-29T00:25:54.435Z,66.84
2023-08-29T00:28:22.723Z,66.43
2023-08-29T00:30:50.652Z,66.11
2023-08-29T00:33:19.377Z,66.29
2023-08-29T00:35:48.693Z,66.43
2023-08-29T00:38:20.191Z,66.81
2023-08-29T00:40:48.219Z,69.06
2023-08-29T00:43:16.266Z,67.23
2023-08-29T00:45:44.839Z,67.27
2023-08-29T00:48:14.096Z,68.15
2023-08-29T00:50:42.841Z,67.79
2023-08-29T00:53:11.533Z,67.87
2023-08-29T00:55:39.473Z,68.45
2023-08-29T00:58:07.740Z,67.82
2023-08-29T01:00:37.891Z,67.28
2023-08-29T01:03:06.572Z,67.42
2023-08-29T01:05:35.151Z,68.69
2023-08-29T01:08:05.599Z,67.95
2023-08-29T01:11:28.402Z,67.93
2023-08-29T01:14:11.384Z,67.96
2023-08-29T01:16:53.511Z,68.76
2023-08-29T01:19:23.972Z,70.18
2023-08-29T01:22:49.051Z,69.06
2023-08-29T01:25:31.900Z,68.78
2023-08-29T01:28:01.995Z,68.47
2023-08-29T01:30:30.471Z,68.26
2023-08-29T01:32:59.604Z,68.47
2023-08-29T01:35:27.971Z,68.90
2023-08-29T01:37:56.072Z,69.51
2023-08-29T01:40:24.644Z,69.76
2023-08-29T01:42:55.339Z,69.07
2023-08-29T01:45:23.396Z,68.89
2023-08-29T01:47:52.224Z,69.19
2023-08-29T01:50:21.869Z,68.62
2023-08-29T01:52:50.435Z,69.69
2023-08-29T01:55:19.623Z,71.41
2023-08-29T01:57:50.694Z,69.83
2023-08-29T02:00:20.109Z,69.55
2023-08-29T02:02:50.624Z,69.42
2023-08-29T02:05:18.724Z,69.40
2023-08-29T02:07:46.763Z,69.40
2023-08-29T02:10:15.117Z,69.25
2023-08-29T02:12:43.586Z,68.97
2023-08-29T02:15:11.973Z,68.84
2023-08-29T02:17:40.325Z,68.77
2023-08-29T02:20:10.206Z,69.06
2023-08-29T02:22:38.772Z,68.91
2023-08-29T02:25:07.288Z,68.98
2023-08-29T02:27:35.297Z,69.81
2023-08-29T02:30:06.113Z,69.69
2023-08-29T02:32:35.886Z,69.51
2023-08-29T02:35:05.343Z,69.55
2023-08-29T02:37:36.184Z,69.67
2023-08-29T02:40:11.219Z,69.37
2023-08-29T02:42:39.324Z,69.19
2023-08-29T02:45:07.675Z,69.19
2023-08-29T02:47:35.882Z,69.41
2023-08-29T02:50:06.489Z,69.54
2023-08-29T02:52:34.528Z,70.09
2023-08-29T02:55:04.930Z,69.81
2023-08-29T02:57:32.895Z,70.41
2023-08-29T03:00:00.946Z,70.30
2023-08-29T03:02:30.273Z,71.19
2023-08-29T03:04:58.481Z,70.21
2023-08-29T03:07:27.186Z,69.91
2023-08-29T03:09:55.243Z,69.96
2023-08-29T03:12:23.848Z,69.83
2023-08-29T03:14:55.449Z,69.82
2023-08-29T03:17:24.265Z,70.20
2023-08-29T03:19:52.497Z,70.07
2023-08-29T03:22:20.489Z,70.17
2023-08-29T03:24:48.811Z,70.32
2023-08-29T03:27:17.908Z,70.08
2023-08-29T03:29:45.973Z,69.94
2023-08-29T03:32:14.043Z,69.82
2023-08-29T03:34:42.086Z,69.79
2023-08-29T03:37:10.092Z,70.73
2023-08-29T03:39:38.181Z,70.47
2023-08-29T03:42:06.299Z,71.29
2023-08-29T03:44:34.585Z,71.71
2023-08-29T03:47:02.628Z,71.80
2023-08-29T03:49:31.031Z,71.51
2023-08-29T03:51:59.041Z,71.09
2023-08-29T03:54:27.454Z,70.77
2023-08-29T03:56:55.427Z,71.13
2023-08-29T03:59:24.186Z,70.52
2023-08-29T04:01:52.227Z,71.25
2023-08-29T04:04:20.486Z,70.97
2023-08-29T04:06:48.599Z,71.10
2023-08-29T04:09:16.546Z,71.90
2023-08-29T04:11:44.494Z,71.47
2023-08-29T04:14:12.432Z,71.44
2023-08-29T04:16:40.404Z,70.88
2023-08-29T04:19:08.819Z,70.44
2023-08-29T04:21:36.722Z,70.32
2023-08-29T04:24:04.870Z,70.36
2023-08-29T04:26:32.851Z,70.48
2023-08-29T04:29:00.823Z,70.86
2023-08-29T04:31:29.019Z,70.68
2023-08-29T04:33:57.687Z,70.58
2023-08-29T04:36:26.739Z,70.44
2023-08-29T04:38:55.231Z,70.28
2023-08-29T04:41:23.205Z,70.16
2023-08-29T04:43:51.187Z,70.19
2023-08-29T04:46:19.262Z,70.30
2023-08-29T04:48:47.218Z,70.05
2023-08-29T04:51:15.287Z,69.89
2023-08-29T04:53:43.457Z,70.65
2023-08-29T04:56:12.552Z,70.25
2023-08-29T04:58:40.634Z,70.11
2023-08-29T05:01:08.717Z,70.06
2023-08-29T05:03:36.926Z,70.41
2023-08-29T05:06:05.146Z,70.10
2023-08-29T05:08:36.331Z,69.51
2023-08-29T05:11:05.531Z,69.34
2023-08-29T05:13:34.000Z,69.56
2023-08-29T05:16:02.055Z,69.42
2023-08-29T05:18:30.332Z,69.24
2023-08-29T05:20:59.896Z,69.02
2023-08-29T05:23:28.027Z,68.88
2023-08-29T05:25:55.901Z,68.80
2023-08-29T05:28:23.987Z,68.02
2023-08-29T05:30:52.006Z,67.58
2023-08-29T05:33:19.897Z,67.32
2023-08-29T05:35:48.531Z,67.04
2023-08-29T05:38:16.472Z,66.96
2023-08-29T05:40:44.425Z,66.87
2023-08-29T05:43:12.437Z,66.54
2023-08-29T05:45:42.665Z,66.07
2023-08-29T05:48:10.806Z,66.33
2023-08-29T05:50:42.524Z,66.39
2023-08-29T05:53:10.679Z,66.09
2023-08-29T05:55:39.236Z,65.69
2023-08-29T05:58:07.431Z,65.33
2023-08-29T06:00:37.245Z,64.93
2023-08-29T06:03:08.674Z,64.73
2023-08-29T06:05:37.872Z,64.42
2023-08-29T06:08:17.528Z,64.22
2023-08-29T06:10:47.783Z,64.30
2023-08-29T06:13:15.867Z,63.86
2023-08-29T06:15:44.112Z,64.05
2023-08-29T06:18:12.087Z,63.91
2023-08-29T06:20:40.158Z,63.65
2023-08-29T06:23:08.238Z,63.08
2023-08-29T06:25:36.922Z,62.29
2023-08-29T06:28:05.412Z,61.69
2023-08-29T06:30:36.288Z,60.91
2023-08-29T06:33:07.730Z,59.79
2023-08-29T06:35:40.462Z,58.40
2023-08-29T06:38:09.458Z,57.18
2023-08-29T06:40:37.805Z,55.32
2023-08-29T06:43:05.824Z,52.09
2023-08-29T06:45:34.011Z,52.40
2023-08-29T06:48:02.314Z,51.66
2023-08-29T06:50:30.544Z,49.71
2023-08-29T06:52:58.543Z,48.14
2023-08-29T06:55:26.458Z,46.68
2023-08-29T06:57:54.434Z,44.34
2023-08-29T07:00:24.420Z,43.08
2023-08-29T07:02:53.096Z,40.34
2023-08-29T07:05:21.690Z,38.94
2023-08-29T07:07:49.649Z,37.18
2023-08-29T07:10:17.941Z,36.97
2023-08-29T07:12:46.493Z,34.98
2023-08-29T07:15:14.467Z,34.03
2023-08-29T07:17:44.106Z,32.08
2023-08-29T07:20:12.805Z,29.80
2023-08-29T07:22:44.714Z,28.94
2023-08-29T07:25:14.696Z,28.39
2023-08-29T07:27:42.694Z,27.42
2023-08-29T07:30:16.051Z,25.61
2023-08-29T07:32:47.081Z,25.09
2023-08-29T07:35:15.702Z,25.30
2023-08-29T07:37:43.855Z,23.85
2023-08-29T07:40:12.109Z,22.89
2023-08-29T07:42:40.241Z,22.40
2023-08-29T07:45:09.797Z,22.28
2023-08-29T07:47:47.335Z,21.63
2023-08-29T07:50:15.497Z,21.24
2023-08-29T07:52:43.492Z,20.71
2023-08-29T07:55:11.781Z,19.98
2023-08-29T07:57:39.806Z,19.93
2023-08-29T08:00:11.209Z,19.91
2023-08-29T08:02:40.349Z,19.13
2023-08-29T08:05:11.596Z,18.73
2023-08-29T08:07:40.702Z,18.73
2023-08-29T08:10:09.510Z,18.78
2023-08-29T08:12:39.323Z,18.95
2023-08-29T08:15:09.310Z,18.72
2023-08-29T08:17:38.424Z,17.93
2023-08-29T08:20:09.679Z,17.67
2023-08-29T08:22:42.414Z,17.44
2023-08-29T08:25:11.545Z,16.80
2023-08-29T08:27:42.400Z,16.74
2023-08-29T08:30:20.543Z,16.15
2023-08-29T08:32:48.564Z,16.08
2023-08-29T08:35:17.441Z,15.77
2023-08-29T08:37:45.543Z,15.52
2023-08-29T08:40:16.408Z,15.28
2023-08-29T08:42:45.708Z,15.54
2023-08-29T08:45:14.691Z,15.61
2023-08-29T08:47:44.068Z,14.89
2023-08-29T08:50:13.087Z,14.98
2023-08-29T08:52:48.211Z,14.75
2023-08-29T08:55:16.709Z,14.67
2023-08-29T08:57:45.243Z,14.35
2023-08-29T09:00:13.794Z,13.26
2023-08-29T09:02:44.030Z,13.35
2023-08-29T09:05:12.201Z,13.27
2023-08-29T09:07:41.506Z,13.59
2023-08-29T09:10:16.378Z,13.63
2023-08-29T09:12:48.870Z,12.98
2023-08-29T09:15:20.113Z,13.17
2023-08-29T09:17:51.342Z,12.63
2023-08-29T09:20:21.347Z,12.68
2023-08-29T09:22:49.800Z,11.91
2023-08-29T09:25:17.802Z,11.47
2023-08-29T09:27:48.396Z,11.52
2023-08-29T09:30:20.128Z,11.73
2023-08-29T09:32:52.337Z,12.27
2023-08-29T09:35:24.405Z,12.50
2023-08-29T09:37:56.524Z,12.04
2023-08-29T09:43:02.692Z,11.68
2023-08-29T09:45:32.591Z,11.90
2023-08-29T09:48:07.727Z,11.59
2023-08-29T09:50:37.529Z,11.20
2023-08-29T09:53:07.094Z,11.45
2023-08-29T09:55:40.696Z,10.83
2023-08-29T09:58:11.152Z,10.89
2023-08-29T10:00:42.423Z,11.27
2023-08-29T10:03:12.565Z,11.11
2023-08-29T10:05:46.158Z,10.37
2023-08-29T10:08:25.452Z,10.70
2023-08-29T10:10:58.036Z,11.08
2023-08-29T10:13:26.301Z,10.64
2023-08-29T10:15:55.913Z,10.22
2023-08-29T10:18:25.908Z,10.41
2023-08-29T10:20:55.764Z,10.04
2023-08-29T10:23:24.904Z,10.44
2023-08-29T10:25:53.203Z,10.18
2023-08-29T10:28:22.313Z,9.87
2023-08-29T10:30:54.394Z,9.83
2023-08-29T10:33:23.975Z,9.97
2023-08-29T10:35:52.157Z,9.88
2023-08-29T10:38:20.213Z,9.50
2023-08-29T10:40:48.153Z,10.18
2023-08-29T10:43:21.231Z,11.31
2023-08-29T10:45:55.120Z,11.74
2023-08-29T10:48:32.142Z,11.86
2023-08-29T10:51:10.378Z,11.77
2023-08-29T10:53:39.589Z,11.57
2023-08-29T10:56:11.475Z,11.27
2023-08-29T10:58:40.569Z,10.62
2023-08-29T11:01:34.963Z,10.94
2023-08-29T11:04:14.189Z,10.48
2023-08-29T11:06:54.528Z,10.74
2023-08-29T11:09:24.969Z,10.66
2023-08-29T11:12:14.221Z,10.67
2023-08-29T11:14:52.914Z,10.40
2023-08-29T11:17:24.940Z,9.93
2023-08-29T11:20:03.206Z,9.46
2023-08-29T11:22:31.206Z,9.24
2023-08-29T11:25:00.148Z,9.11
2023-08-29T11:27:32.690Z,9.22
2023-08-29T11:30:19.605Z,9.02
2023-08-29T11:32:52.483Z,9.03
2023-08-29T11:35:21.684Z,8.91
2023-08-29T11:37:49.690Z,9.43
2023-08-29T11:40:25.407Z,9.78
2023-08-29T11:43:26.352Z,9.46
2023-08-29T11:46:02.971Z,9.06
2023-08-29T11:48:35.120Z,8.91
2023-08-29T11:51:08.621Z,9.26
2023-08-29T11:53:39.198Z,9.66
2023-08-29T11:56:11.236Z,10.59
2023-08-29T11:58:41.257Z,11.87
2023-08-29T12:01:09.614Z,13.22
2023-08-29T12:03:39.498Z,13.07
2023-08-29T12:06:14.366Z,13.26
2023-08-29T12:08:47.248Z,12.96
2023-08-29T12:11:17.009Z,11.67
2023-08-29T12:14:02.155Z,11.68
2023-08-29T12:16:30.397Z,12.05
2023-08-29T12:19:08.229Z,11.49
2023-08-29T12:21:36.484Z,10.73
2023-08-29T12:24:12.628Z,11.74
2023-08-29T12:26:40.727Z,11.70
2023-08-29T12:29:08.669Z,11.12
2023-08-29T12:31:36.639Z,10.42
2023-08-29T12:34:05.333Z,9.87
2023-08-29T12:36:33.361Z,9.63
2023-08-29T12:39:01.372Z,10.03
2023-08-29T12:41:32.424Z,9.90
2023-08-29T12:44:04.267Z,9.77
2023-08-29T12:46:32.442Z,10.92
2023-08-29T12:49:01.435Z,12.14
2023-08-29T12:51:30.138Z,13.30
2023-08-29T12:53:58.257Z,14.52
2023-08-29T12:56:26.258Z,14.51
2023-08-29T12:58:54.429Z,14.09
2023-08-29T13:01:22.646Z,13.21
2023-08-29T13:03:50.830Z,12.46
2023-08-29T13:06:19.008Z,12.40
2023-08-29T13:08:47.328Z,12.40
2023-08-29T13:11:15.278Z,13.14
2023-08-29T13:13:43.343Z,14.15
2023-08-29T13:16:11.320Z,14.78
2023-08-29T13:18:39.294Z,14.53
2023-08-29T13:21:08.914Z,13.94
2023-08-29T13:23:39.813Z,13.40
2023-08-29T13:26:07.811Z,13.10
2023-08-29T13:28:35.828Z,13.23
2023-08-29T13:31:06.074Z,13.03
2023-08-29T13:33:36.196Z,12.67
2023-08-29T13:36:04.498Z,12.80
2023-08-29T13:38:32.474Z,12.07
2023-08-29T13:41:00.367Z,11.83
2023-08-29T13:43:28.318Z,12.32
2023-08-29T13:45:56.391Z,12.71
2023-08-29T13:48:24.451Z,12.62
2023-08-29T13:50:53.384Z,13.81
2023-08-29T13:53:21.503Z,14.08
2023-08-29T13:55:52.771Z,13.60
2023-08-29T13:58:21.050Z,13.23
2023-08-29T14:00:49.050Z,14.21
2023-08-29T14:03:29.258Z,14.73
2023-08-29T14:06:05.132Z,14.47
2023-08-29T14:08:33.181Z,14.10
2023-08-29T14:11:06.516Z,13.40
2023-08-29T14:13:35.875Z,13.71
2023-08-29T14:16:04.754Z,13.81
2023-08-29T14:18:35.274Z,13.97
2023-08-29T14:21:04.079Z,13.99
2023-08-29T14:23:32.070Z,14.04
2023-08-29T14:26:00.057Z,14.19
2023-08-29T14:28:28.006Z,13.63
2023-08-29T14:30:56.116Z,14.25
2023-08-29T14:33:24.338Z,14.56
2023-08-29T14:35:56.232Z,15.26
2023-08-29T14:38:24.334Z,16.18
2023-08-29T14:40:52.542Z,16.82
2023-08-29T14:43:20.475Z,17.50
2023-08-29T14:45:48.931Z,18.01
2023-08-29T14:48:16.905Z,18.94
2023-08-29T14:50:45.903Z,19.03
2023-08-29T14:53:13.980Z,19.35
2023-08-29T14:55:41.971Z,19.38
2023-08-29T14:58:10.456Z,19.57
2023-08-29T15:00:43.594Z,19.69
2023-08-29T15:03:14.146Z,20.19
2023-08-29T15:05:43.078Z,20.82
2023-08-29T15:08:11.285Z,20.97
2023-08-29T15:10:39.270Z,21.55
2023-08-29T15:13:08.716Z,21.95
2023-08-29T15:15:39.562Z,22.65
2023-08-29T15:18:07.889Z,23.38
2023-08-29T15:20:39.745Z,23.50
2023-08-29T15:23:07.631Z,23.60
2023-08-29T15:25:35.525Z,23.92
2023-08-29T15:28:04.138Z,24.29
2023-08-29T15:30:32.369Z,24.63
2023-08-29T15:33:00.457Z,25.09
2023-08-29T15:35:28.606Z,25.51
2023-08-29T15:37:57.354Z,25.78
2023-08-29T15:40:25.420Z,25.93
2023-08-29T15:42:53.522Z,26.50
2023-08-29T15:45:21.581Z,26.81
2023-08-29T15:47:50.217Z,27.14
2023-08-29T15:50:18.436Z,27.41
2023-08-29T15:52:46.365Z,27.62
2023-08-29T15:55:14.315Z,27.55
2023-08-29T15:57:42.230Z,27.99
2023-08-29T16:00:15.420Z,28.09
2023-08-29T16:02:47.848Z,28.58
2023-08-29T16:05:16.233Z,28.69
2023-08-29T16:07:45.935Z,28.79
2023-08-29T16:10:16.026Z,29.07
2023-08-29T16:12:44.311Z,29.16
2023-08-29T16:15:14.963Z,29.57
2023-08-29T16:17:45.209Z,29.72
2023-08-29T16:20:13.368Z,29.97
2023-08-29T16:22:41.428Z,30.12
2023-08-29T16:25:10.287Z,30.24
2023-08-29T16:27:38.472Z,30.48
2023-08-29T16:30:08.852Z,30.74
2023-08-29T16:32:37.116Z,31.06
2023-08-29T16:35:05.527Z,31.21
2023-08-29T16:37:33.684Z,31.31
2023-08-29T16:40:01.644Z,31.47
2023-08-29T16:42:33.886Z,31.63
2023-08-29T16:45:02.140Z,31.96
2023-08-29T16:47:30.124Z,32.07
2023-08-29T16:49:58.173Z,32.29
2023-08-29T16:52:26.223Z,32.49
2023-08-29T16:54:54.203Z,32.47
2023-08-29T16:57:22.246Z,32.55
2023-08-29T16:59:58.985Z,33.07
2023-08-29T17:02:28.183Z,34.91
2023-08-29T17:04:56.844Z,35.41
2023-08-29T17:07:25.739Z,36.29
2023-08-29T17:09:53.750Z,35.79
2023-08-29T17:12:23.762Z,36.26
2023-08-29T17:14:52.578Z,36.58
2023-08-29T17:17:21.163Z,36.74
2023-08-29T17:19:50.652Z,36.94
2023-08-29T17:22:18.659Z,36.96
2023-08-29T17:24:46.838Z,37.40
2023-08-29T17:27:14.878Z,37.82
2023-08-29T17:29:43.022Z,37.87
2023-08-29T17:32:11.403Z,37.76
2023-08-29T17:34:39.378Z,38.13
2023-08-29T17:37:07.327Z,38.75
2023-08-29T17:39:35.460Z,38.47
2023-08-29T17:42:03.653Z,39.03
2023-08-29T17:44:31.774Z,38.68
2023-08-29T17:46:59.742Z,38.03
2023-08-29T17:49:27.882Z,38.09
2023-08-29T17:51:55.901Z,38.16
2023-08-29T17:54:24.284Z,38.95
2023-08-29T17:56:52.255Z,39.15
2023-08-29T17:59:20.751Z,39.04
2023-08-29T18:01:51.030Z,39.15
2023-08-29T18:04:20.646Z,39.01
2023-08-29T18:06:48.835Z,39.47
2023-08-29T18:09:19.406Z,40.28
2023-08-29T18:11:47.708Z,40.74
2023-08-29T18:14:15.652Z,41.59
2023-08-29T18:16:43.630Z,42.27
2023-08-29T18:19:11.837Z,42.72
2023-08-29T18:21:39.832Z,43.24
2023-08-29T18:24:07.929Z,43.75
2023-08-29T18:26:35.929Z,43.93
2023-08-29T18:29:03.943Z,44.33
2023-08-29T18:31:31.910Z,45.10
2023-08-29T18:33:59.885Z,45.57
2023-08-29T18:36:28.594Z,45.27
2023-08-29T18:38:57.279Z,45.78
2023-08-29T18:41:25.214Z,45.52
2023-08-29T18:43:53.232Z,45.74
2023-08-29T18:46:21.279Z,45.65
2023-08-29T18:48:49.406Z,46.52
2023-08-29T18:51:17.524Z,46.35
2023-08-29T18:53:45.619Z,46.07
2023-08-29T18:56:17.218Z,45.77
2023-08-29T18:58:46.939Z,45.92
2023-08-29T19:01:14.945Z,47.74
2023-08-29T19:03:44.274Z,57.40
2023-08-29T19:06:15.359Z,62.11
2023-08-29T19:08:43.421Z,64.49
2023-08-29T19:11:12.846Z,64.63
2023-08-29T19:13:43.507Z,66.17
2023-08-29T19:16:14.366Z,66.29
2023-08-29T19:18:42.490Z,65.94
2023-08-29T19:21:13.345Z,66.82
2023-08-29T19:23:41.345Z,67.49
2023-08-29T19:26:09.401Z,69.77
2023-08-29T19:28:37.385Z,74.98
2023-08-29T19:31:08.229Z,77.75
2023-08-29T19:33:36.360Z,79.29
2023-08-29T19:36:12.160Z,82.01
2023-08-29T19:38:45.810Z,82.84
2023-08-29T19:41:15.141Z,82.58
2023-08-29T19:43:43.262Z,83.07
2023-08-29T19:46:11.316Z,83.40
2023-08-29T19:48:39.407Z,83.72
2023-08-29T19:51:07.408Z,83.76
2023-08-29T19:53:38.394Z,84.41
2023-08-29T19:56:07.239Z,84.34
2023-08-29T19:58:35.960Z,83.60
2023-08-29T20:01:10.060Z,83.63
2023-08-29T20:03:38.419Z,83.64
2023-08-29T20:06:06.612Z,83.46
2023-08-29T20:08:34.780Z,83.32
2023-08-29T20:11:06.467Z,82.60
2023-08-29T20:13:34.755Z,82.52
2023-08-29T20:16:06.933Z,83.56
2023-08-29T20:18:35.086Z,84.73
2023-08-29T20:21:05.082Z,82.93
2023-08-29T20:23:34.820Z,81.84
2023-08-29T20:26:05.680Z,81.68
2023-08-29T20:28:33.800Z,83.17
2023-08-29T20:31:04.453Z,82.49
2023-08-29T20:33:32.775Z,81.62
2023-08-29T20:36:00.714Z,81.78
2023-08-29T20:38:28.750Z,81.90
2023-08-29T20:40:56.695Z,82.30
2023-08-29T20:43:24.668Z,82.00
2023-08-29T20:45:52.648Z,82.54
2023-08-29T20:48:20.616Z,83.71
2023-08-29T20:50:51.043Z,84.48
2023-08-29T20:53:19.052Z,80.96
2023-08-29T20:55:47.026Z,82.67
2023-08-29T20:58:15.313Z,83.73
2023-08-29T21:00:43.407Z,82.31
2023-08-29T21:03:11.722Z,83.42
2023-08-29T21:05:39.991Z,85.40
2023-08-29T21:08:08.215Z,85.13
2023-08-29T21:10:36.420Z,84.24
2023-08-29T21:13:05.419Z,84.07
2023-08-29T21:15:33.519Z,84.71
2023-08-29T21:18:01.793Z,85.00
2023-08-29T21:20:29.987Z,85.19
2023-08-29T21:22:57.971Z,84.42
2023-08-29T21:25:25.895Z,84.15
2023-08-29T21:27:53.881Z,85.04
2023-08-29T21:30:21.863Z,85.89
2023-08-29T21:32:49.880Z,86.28
2023-08-29T21:35:21.285Z,86.06
2023-08-29T21:37:49.256Z,86.14
2023-08-29T21:40:18.177Z,86.16
2023-08-29T21:42:46.701Z,86.58
2023-08-29T21:45:15.478Z,85.95
2023-08-29T21:47:43.535Z,86.74
2023-08-29T21:50:11.953Z,87.22
2023-08-29T21:52:39.980Z,87.87
2023-08-29T21:55:09.589Z,88.03
2023-08-29T21:57:37.482Z,87.84
2023-08-29T22:00:08.625Z,87.28
2023-08-29T22:02:38.855Z,87.72
2023-08-29T22:05:07.143Z,87.73
2023-08-29T22:07:36.457Z,86.95
2023-08-29T22:10:08.176Z,85.65
2023-08-29T22:12:36.196Z,85.07
2023-08-29T22:15:05.915Z,86.58
2023-08-29T22:17:34.188Z,86.54
2023-08-29T22:20:02.227Z,87.29
2023-08-29T22:22:30.215Z,87.72
2023-08-29T22:24:58.178Z,88.33
2023-08-29T22:27:26.213Z,88.54
2023-08-29T22:29:54.148Z,88.55
2023-08-29T22:32:22.123Z,88.37
2023-08-29T22:34:50.442Z,87.82
2023-08-29T22:37:19.155Z,88.27
2023-08-29T22:39:51.848Z,89.25
2023-08-29T22:42:19.921Z,89.64
2023-08-29T22:44:47.992Z,89.75
2023-08-29T22:47:16.800Z,89.09
2023-08-29T22:49:44.904Z,88.12
2023-08-29T22:52:13.420Z,88.95
2023-08-29T22:54:42.102Z,89.92
2023-08-29T22:57:11.769Z,89.44
2023-08-29T22:59:39.976Z,89.42
2023-08-29T23:02:08.586Z,89.93
2023-08-29T23:04:36.976Z,89.03
2023-08-29T23:07:10.052Z,89.05
2023-08-29T23:09:38.814Z,89.28
2023-08-29T23:12:07.224Z,89.46
2023-08-29T23:14:35.679Z,89.03
2023-08-29T23:17:07.639Z,89.11
2023-08-29T23:19:35.645Z,89.45
2023-08-29T23:22:03.781Z,89.93
2023-08-29T23:24:32.366Z,89.66
2023-08-29T23:27:03.947Z,89.50
2023-08-29T23:29:34.460Z,89.42
2023-08-29T23:32:02.847Z,88.91
2023-08-29T23:34:32.244Z,89.42
2023-08-29T23:37:00.365Z,90.24
2023-08-29T23:39:28.374Z,90.11
2023-08-29T23:41:57.050Z,90.31
2023-08-29T23:44:25.034Z,90.24
2023-08-29T23:46:53.006Z,89.07
2023-08-29T23:49:21.158Z,88.82
2023-08-29T23:51:49.556Z,88.96
2023-08-29T23:54:17.596Z,89.36
2023-08-29T23:56:45.642Z,89.97
2023-08-29T23:59:13.656Z,90.15
